sensor_id;sensor_type;location;lat;lon;timestamp;P1;durP1;ratioP1;P2;durP2;ratioP2
74465;SDS011;62916;50.044;15.938;2022-08-21T00:01:38;3.30;;;2.90;;
74465;SDS011;62916;50.044;15.938;2022-08-21T00:04:09;3.50;;;3.20;;
74465;SDS011;62916;50.044;15.938;2022-08-21T00:06:48;2.80;;;2.60;;
74465;SDS011;62916;50.044;15.938;2022-08-21T00:09:20;2.70;;;2.50;;
74465;SDS011;62916;50.044;15.938;2022-08-21T00:11:51;2.60;;;2.40;;
74465;SDS011;62916;50.044;15.938;2022-08-21T00:14:22;2.60;;;2.40;;
74465;SDS011;62916;50.044;15.938;2022-08-21T00:16:58;2.50;;;2.30;;
74465;SDS011;62916;50.044;15.938;2022-08-21T00:19:29;2.90;;;2.60;;
74465;SDS011;62916;50.044;15.938;2022-08-21T00:22:00;3.00;;;2.80;;
74465;SDS011;62916;50.044;15.938;2022-08-21T00:24:31;2.70;;;2.50;;
74465;SDS011;62916;50.044;15.938;2022-08-21T00:27:02;2.50;;;2.30;;
74465;SDS011;62916;50.044;15.938;2022-08-21T00:29:34;2.20;;;2.00;;
74465;SDS011;62916;50.044;15.938;2022-08-21T00:32:05;2.40;;;2.20;;
74465;SDS011;62916;50.044;15.938;2022-08-21T00:34:36;2.90;;;2.50;;
74465;SDS011;62916;50.044;15.938;2022-08-21T00:37:07;2.60;;;2.40;;
74465;SDS011;62916;50.044;15.938;2022-08-21T00:39:37;2.30;;;2.10;;
74465;SDS011;62916;50.044;15.938;2022-08-21T00:42:09;2.60;;;2.40;;
74465;SDS011;62916;50.044;15.938;2022-08-21T00:44:42;2.50;;;2.30;;
74465;SDS011;62916;50.044;15.938;2022-08-21T00:47:15;3.70;;;2.50;;
74465;SDS011;62916;50.044;15.938;2022-08-21T00:49:47;3.70;;;2.60;;
74465;SDS011;62916;50.044;15.938;2022-08-21T00:52:19;3.00;;;2.70;;
74465;SDS011;62916;50.044;15.938;2022-08-21T00:54:54;3.20;;;2.90;;
74465;SDS011;62916;50.044;15.938;2022-08-21T00:57:35;2.80;;;2.50;;
74465;SDS011;62916;50.044;15.938;2022-08-21T01:00:12;3.40;;;3.10;;
74465;SDS011;62916;50.044;15.938;2022-08-21T01:02:46;3.30;;;3.00;;
74465;SDS011;62916;50.044;15.938;2022-08-21T01:05:17;4.10;;;3.20;;
74465;SDS011;62916;50.044;15.938;2022-08-21T01:07:48;3.60;;;3.20;;
74465;SDS011;62916;50.044;15.938;2022-08-21T01:10:19;3.30;;;3.00;;
74465;SDS011;62916;50.044;15.938;2022-08-21T01:12:52;3.40;;;2.70;;
74465;SDS011;62916;50.044;15.938;2022-08-21T01:15:26;3.70;;;3.30;;
74465;SDS011;62916;50.044;15.938;2022-08-21T01:17:59;4.20;;;3.40;;
74465;SDS011;62916;50.044;15.938;2022-08-21T01:20:31;4.30;;;3.80;;
74465;SDS011;62916;50.044;15.938;2022-08-21T01:23:04;5.50;;;3.30;;
74465;SDS011;62916;50.044;15.938;2022-08-21T01:25:35;3.80;;;3.40;;
74465;SDS011;62916;50.044;15.938;2022-08-21T01:28:09;3.70;;;3.40;;
74465;SDS011;62916;50.044;15.938;2022-08-21T01:30:44;5.10;;;3.30;;
74465;SDS011;62916;50.044;15.938;2022-08-21T01:33:15;3.70;;;3.30;;
74465;SDS011;62916;50.044;15.938;2022-08-21T01:35:47;3.70;;;3.40;;
74465;SDS011;62916;50.044;15.938;2022-08-21T01:38:18;4.20;;;3.80;;
74465;SDS011;62916;50.044;15.938;2022-08-21T01:40:49;4.60;;;3.70;;
74465;SDS011;62916;50.044;15.938;2022-08-21T01:43:24;4.00;;;3.70;;
74465;SDS011;62916;50.044;15.938;2022-08-21T01:46:06;4.40;;;3.70;;
74465;SDS011;62916;50.044;15.938;2022-08-21T01:48:38;4.70;;;4.30;;
74465;SDS011;62916;50.044;15.938;2022-08-21T01:51:10;4.40;;;4.00;;
74465;SDS011;62916;50.044;15.938;2022-08-21T01:53:41;4.10;;;3.70;;
74465;SDS011;62916;50.044;15.938;2022-08-21T01:56:13;5.10;;;3.90;;
74465;SDS011;62916;50.044;15.938;2022-08-21T01:58:46;5.40;;;4.90;;
74465;SDS011;62916;50.044;15.938;2022-08-21T02:01:18;4.80;;;4.40;;
74465;SDS011;62916;50.044;15.938;2022-08-21T02:03:49;4.30;;;3.90;;
74465;SDS011;62916;50.044;15.938;2022-08-21T02:06:20;5.40;;;4.40;;
74465;SDS011;62916;50.044;15.938;2022-08-21T02:08:52;5.40;;;4.30;;
74465;SDS011;62916;50.044;15.938;2022-08-21T02:11:24;4.60;;;4.20;;
74465;SDS011;62916;50.044;15.938;2022-08-21T02:13:55;4.90;;;4.30;;
74465;SDS011;62916;50.044;15.938;2022-08-21T02:16:26;4.90;;;4.10;;
74465;SDS011;62916;50.044;15.938;2022-08-21T02:18:58;4.50;;;4.10;;
74465;SDS011;62916;50.044;15.938;2022-08-21T02:21:29;4.30;;;3.90;;
74465;SDS011;62916;50.044;15.938;2022-08-21T02:24:00;4.90;;;4.30;;
74465;SDS011;62916;50.044;15.938;2022-08-21T02:26:31;4.10;;;3.70;;
74465;SDS011;62916;50.044;15.938;2022-08-21T02:29:03;4.40;;;4.00;;
74465;SDS011;62916;50.044;15.938;2022-08-21T02:31:34;4.20;;;3.80;;
74465;SDS011;62916;50.044;15.938;2022-08-21T02:34:05;3.80;;;3.50;;
74465;SDS011;62916;50.044;15.938;2022-08-21T02:36:36;4.00;;;3.40;;
74465;SDS011;62916;50.044;15.938;2022-08-21T02:39:08;3.80;;;3.00;;
74465;SDS011;62916;50.044;15.938;2022-08-21T02:41:38;3.60;;;3.30;;
74465;SDS011;62916;50.044;15.938;2022-08-21T02:44:09;3.50;;;3.20;;
74465;SDS011;62916;50.044;15.938;2022-08-21T02:46:40;3.20;;;2.90;;
74465;SDS011;62916;50.044;15.938;2022-08-21T02:49:11;3.30;;;3.00;;
74465;SDS011;62916;50.044;15.938;2022-08-21T02:51:42;3.40;;;3.10;;
74465;SDS011;62916;50.044;15.938;2022-08-21T02:54:12;3.50;;;3.20;;
74465;SDS011;62916;50.044;15.938;2022-08-21T02:56:44;5.00;;;3.50;;
74465;SDS011;62916;50.044;15.938;2022-08-21T02:59:15;3.50;;;3.10;;
74465;SDS011;62916;50.044;15.938;2022-08-21T03:01:47;3.90;;;3.50;;
74465;SDS011;62916;50.044;15.938;2022-08-21T03:04:18;3.30;;;3.00;;
74465;SDS011;62916;50.044;15.938;2022-08-21T03:06:50;4.10;;;3.20;;
74465;SDS011;62916;50.044;15.938;2022-08-21T03:09:20;3.50;;;3.20;;
74465;SDS011;62916;50.044;15.938;2022-08-21T03:11:51;3.40;;;3.00;;
74465;SDS011;62916;50.044;15.938;2022-08-21T03:14:22;3.60;;;3.30;;
74465;SDS011;62916;50.044;15.938;2022-08-21T03:16:53;3.70;;;3.30;;
74465;SDS011;62916;50.044;15.938;2022-08-21T03:19:23;4.20;;;3.30;;
74465;SDS011;62916;50.044;15.938;2022-08-21T03:21:54;3.40;;;3.10;;
74465;SDS011;62916;50.044;15.938;2022-08-21T03:24:25;3.70;;;3.30;;
74465;SDS011;62916;50.044;15.938;2022-08-21T03:26:56;3.90;;;3.50;;
74465;SDS011;62916;50.044;15.938;2022-08-21T03:29:28;3.80;;;3.00;;
74465;SDS011;62916;50.044;15.938;2022-08-21T03:31:59;3.40;;;3.00;;
74465;SDS011;62916;50.044;15.938;2022-08-21T03:34:30;3.30;;;3.10;;
74465;SDS011;62916;50.044;15.938;2022-08-21T03:37:01;3.40;;;3.10;;
74465;SDS011;62916;50.044;15.938;2022-08-21T03:39:32;3.40;;;3.10;;
74465;SDS011;62916;50.044;15.938;2022-08-21T03:42:04;3.10;;;2.80;;
74465;SDS011;62916;50.044;15.938;2022-08-21T03:44:35;3.10;;;2.80;;
74465;SDS011;62916;50.044;15.938;2022-08-21T03:47:07;3.80;;;3.40;;
74465;SDS011;62916;50.044;15.938;2022-08-21T03:49:39;3.50;;;3.20;;
74465;SDS011;62916;50.044;15.938;2022-08-21T03:52:09;4.20;;;3.80;;
74465;SDS011;62916;50.044;15.938;2022-08-21T03:54:40;3.40;;;3.10;;
74465;SDS011;62916;50.044;15.938;2022-08-21T03:57:11;3.10;;;2.80;;
74465;SDS011;62916;50.044;15.938;2022-08-21T03:59:42;3.40;;;3.00;;
74465;SDS011;62916;50.044;15.938;2022-08-21T04:02:14;3.10;;;2.80;;
74465;SDS011;62916;50.044;15.938;2022-08-21T04:04:49;3.70;;;2.80;;
74465;SDS011;62916;50.044;15.938;2022-08-21T04:07:19;3.10;;;2.80;;
74465;SDS011;62916;50.044;15.938;2022-08-21T04:09:50;3.10;;;2.70;;
74465;SDS011;62916;50.044;15.938;2022-08-21T04:12:21;3.30;;;2.90;;
74465;SDS011;62916;50.044;15.938;2022-08-21T04:14:52;2.80;;;2.60;;
74465;SDS011;62916;50.044;15.938;2022-08-21T04:17:23;2.90;;;2.60;;
74465;SDS011;62916;50.044;15.938;2022-08-21T04:19:54;2.90;;;2.70;;
74465;SDS011;62916;50.044;15.938;2022-08-21T04:22:25;3.40;;;2.70;;
74465;SDS011;62916;50.044;15.938;2022-08-21T04:24:56;3.40;;;2.50;;
74465;SDS011;62916;50.044;15.938;2022-08-21T04:27:27;2.80;;;2.60;;
74465;SDS011;62916;50.044;15.938;2022-08-21T04:29:58;2.40;;;2.30;;
74465;SDS011;62916;50.044;15.938;2022-08-21T04:32:28;3.00;;;2.70;;
74465;SDS011;62916;50.044;15.938;2022-08-21T04:35:00;3.80;;;3.50;;
74465;SDS011;62916;50.044;15.938;2022-08-21T04:37:33;2.60;;;2.40;;
74465;SDS011;62916;50.044;15.938;2022-08-21T04:40:11;2.60;;;2.40;;
74465;SDS011;62916;50.044;15.938;2022-08-21T04:42:46;2.60;;;2.40;;
74465;SDS011;62916;50.044;15.938;2022-08-21T04:45:20;2.80;;;2.60;;
74465;SDS011;62916;50.044;15.938;2022-08-21T04:47:53;2.80;;;2.60;;
74465;SDS011;62916;50.044;15.938;2022-08-21T04:50:29;2.60;;;2.40;;
74465;SDS011;62916;50.044;15.938;2022-08-21T04:53:07;2.50;;;2.30;;
74465;SDS011;62916;50.044;15.938;2022-08-21T04:55:47;2.80;;;2.60;;
74465;SDS011;62916;50.044;15.938;2022-08-21T04:58:19;6.30;;;2.60;;
74465;SDS011;62916;50.044;15.938;2022-08-21T05:00:52;2.80;;;2.50;;
74465;SDS011;62916;50.044;15.938;2022-08-21T05:03:25;3.20;;;2.90;;
74465;SDS011;62916;50.044;15.938;2022-08-21T05:05:58;3.00;;;2.70;;
74465;SDS011;62916;50.044;15.938;2022-08-21T05:08:33;3.10;;;2.80;;
74465;SDS011;62916;50.044;15.938;2022-08-21T05:11:05;2.80;;;2.50;;
74465;SDS011;62916;50.044;15.938;2022-08-21T05:13:36;3.30;;;3.00;;
74465;SDS011;62916;50.044;15.938;2022-08-21T05:16:09;3.00;;;2.70;;
74465;SDS011;62916;50.044;15.938;2022-08-21T05:18:39;2.90;;;2.70;;
74465;SDS011;62916;50.044;15.938;2022-08-21T05:21:10;3.20;;;2.90;;
74465;SDS011;62916;50.044;15.938;2022-08-21T05:23:41;2.90;;;2.70;;
74465;SDS011;62916;50.044;15.938;2022-08-21T05:26:13;2.70;;;2.50;;
74465;SDS011;62916;50.044;15.938;2022-08-21T05:28:45;3.00;;;2.70;;
74465;SDS011;62916;50.044;15.938;2022-08-21T05:31:16;2.80;;;2.50;;
74465;SDS011;62916;50.044;15.938;2022-08-21T05:33:46;3.30;;;3.00;;
74465;SDS011;62916;50.044;15.938;2022-08-21T05:36:18;3.10;;;2.80;;
74465;SDS011;62916;50.044;15.938;2022-08-21T05:38:50;2.90;;;2.70;;
74465;SDS011;62916;50.044;15.938;2022-08-21T05:41:20;3.20;;;2.90;;
74465;SDS011;62916;50.044;15.938;2022-08-21T05:43:51;2.80;;;2.60;;
74465;SDS011;62916;50.044;15.938;2022-08-21T05:46:23;3.20;;;2.30;;
74465;SDS011;62916;50.044;15.938;2022-08-21T05:48:54;2.70;;;2.50;;
74465;SDS011;62916;50.044;15.938;2022-08-21T05:51:25;2.70;;;2.50;;
74465;SDS011;62916;50.044;15.938;2022-08-21T05:53:55;3.30;;;2.60;;
74465;SDS011;62916;50.044;15.938;2022-08-21T05:56:26;2.50;;;2.30;;
74465;SDS011;62916;50.044;15.938;2022-08-21T05:58:57;2.80;;;2.60;;
74465;SDS011;62916;50.044;15.938;2022-08-21T06:01:28;2.80;;;2.30;;
74465;SDS011;62916;50.044;15.938;2022-08-21T06:03:59;2.80;;;2.60;;
74465;SDS011;62916;50.044;15.938;2022-08-21T06:06:31;2.80;;;2.30;;
74465;SDS011;62916;50.044;15.938;2022-08-21T06:09:02;3.00;;;2.40;;
74465;SDS011;62916;50.044;15.938;2022-08-21T06:11:33;2.50;;;2.00;;
74465;SDS011;62916;50.044;15.938;2022-08-21T06:14:04;2.90;;;2.20;;
74465;SDS011;62916;50.044;15.938;2022-08-21T06:16:35;2.50;;;2.30;;
74465;SDS011;62916;50.044;15.938;2022-08-21T06:19:06;2.30;;;2.00;;
74465;SDS011;62916;50.044;15.938;2022-08-21T06:21:37;3.00;;;2.70;;
74465;SDS011;62916;50.044;15.938;2022-08-21T06:24:08;3.00;;;2.20;;
74465;SDS011;62916;50.044;15.938;2022-08-21T06:26:39;2.50;;;2.30;;
74465;SDS011;62916;50.044;15.938;2022-08-21T06:29:12;2.70;;;2.10;;
74465;SDS011;62916;50.044;15.938;2022-08-21T06:31:47;2.60;;;2.20;;
74465;SDS011;62916;50.044;15.938;2022-08-21T06:34:20;2.40;;;2.20;;
74465;SDS011;62916;50.044;15.938;2022-08-21T06:36:50;2.70;;;2.50;;
74465;SDS011;62916;50.044;15.938;2022-08-21T06:39:23;2.40;;;1.80;;
74465;SDS011;62916;50.044;15.938;2022-08-21T06:41:59;2.10;;;1.90;;
74465;SDS011;62916;50.044;15.938;2022-08-21T06:44:36;2.90;;;2.20;;
74465;SDS011;62916;50.044;15.938;2022-08-21T06:47:07;2.30;;;2.10;;
74465;SDS011;62916;50.044;15.938;2022-08-21T06:49:39;2.10;;;1.90;;
74465;SDS011;62916;50.044;15.938;2022-08-21T06:52:10;2.20;;;2.00;;
74465;SDS011;62916;50.044;15.938;2022-08-21T06:54:42;1.90;;;1.60;;
74465;SDS011;62916;50.044;15.938;2022-08-21T06:57:13;2.20;;;1.90;;
74465;SDS011;62916;50.044;15.938;2022-08-21T06:59:44;1.90;;;1.50;;
74465;SDS011;62916;50.044;15.938;2022-08-21T07:02:15;1.90;;;1.80;;
74465;SDS011;62916;50.044;15.938;2022-08-21T07:04:46;2.00;;;1.90;;
74465;SDS011;62916;50.044;15.938;2022-08-21T07:07:17;1.60;;;1.50;;
74465;SDS011;62916;50.044;15.938;2022-08-21T07:09:47;2.10;;;2.00;;
74465;SDS011;62916;50.044;15.938;2022-08-21T07:12:18;2.00;;;1.70;;
74465;SDS011;62916;50.044;15.938;2022-08-21T07:14:50;1.80;;;1.70;;
74465;SDS011;62916;50.044;15.938;2022-08-21T07:17:21;1.90;;;1.70;;
74465;SDS011;62916;50.044;15.938;2022-08-21T07:19:52;2.80;;;2.10;;
74465;SDS011;62916;50.044;15.938;2022-08-21T07:22:24;2.00;;;1.70;;
74465;SDS011;62916;50.044;15.938;2022-08-21T07:24:56;2.90;;;1.70;;
74465;SDS011;62916;50.044;15.938;2022-08-21T07:27:27;1.90;;;1.80;;
74465;SDS011;62916;50.044;15.938;2022-08-21T07:29:59;1.70;;;1.60;;
74465;SDS011;62916;50.044;15.938;2022-08-21T07:32:30;1.50;;;1.40;;
74465;SDS011;62916;50.044;15.938;2022-08-21T07:35:01;1.70;;;1.60;;
74465;SDS011;62916;50.044;15.938;2022-08-21T07:37:32;1.60;;;1.50;;
74465;SDS011;62916;50.044;15.938;2022-08-21T07:40:04;1.80;;;1.70;;
74465;SDS011;62916;50.044;15.938;2022-08-21T07:42:40;2.10;;;2.00;;
74465;SDS011;62916;50.044;15.938;2022-08-21T07:45:12;1.70;;;1.40;;
74465;SDS011;62916;50.044;15.938;2022-08-21T07:47:43;1.80;;;1.70;;
74465;SDS011;62916;50.044;15.938;2022-08-21T07:50:14;1.70;;;1.60;;
74465;SDS011;62916;50.044;15.938;2022-08-21T07:52:46;1.60;;;1.50;;
74465;SDS011;62916;50.044;15.938;2022-08-21T07:55:17;1.60;;;1.30;;
74465;SDS011;62916;50.044;15.938;2022-08-21T07:57:49;1.40;;;1.30;;
74465;SDS011;62916;50.044;15.938;2022-08-21T08:00:21;2.60;;;1.30;;
74465;SDS011;62916;50.044;15.938;2022-08-21T08:02:53;1.30;;;1.10;;
74465;SDS011;62916;50.044;15.938;2022-08-21T08:05:26;1.30;;;1.10;;
74465;SDS011;62916;50.044;15.938;2022-08-21T08:07:58;1.40;;;1.30;;
74465;SDS011;62916;50.044;15.938;2022-08-21T08:10:29;1.60;;;1.10;;
74465;SDS011;62916;50.044;15.938;2022-08-21T08:13:00;2.00;;;1.00;;
74465;SDS011;62916;50.044;15.938;2022-08-21T08:15:37;1.40;;;1.30;;
74465;SDS011;62916;50.044;15.938;2022-08-21T08:18:09;1.70;;;1.00;;
74465;SDS011;62916;50.044;15.938;2022-08-21T08:20:41;1.30;;;1.00;;
74465;SDS011;62916;50.044;15.938;2022-08-21T08:23:12;1.20;;;1.00;;
74465;SDS011;62916;50.044;15.938;2022-08-21T08:25:44;1.40;;;1.10;;
74465;SDS011;62916;50.044;15.938;2022-08-21T08:28:16;1.30;;;1.10;;
74465;SDS011;62916;50.044;15.938;2022-08-21T08:30:47;1.60;;;1.00;;
74465;SDS011;62916;50.044;15.938;2022-08-21T08:33:18;1.10;;;0.90;;
74465;SDS011;62916;50.044;15.938;2022-08-21T08:35:50;1.30;;;1.10;;
74465;SDS011;62916;50.044;15.938;2022-08-21T08:38:21;2.20;;;0.90;;
74465;SDS011;62916;50.044;15.938;2022-08-21T08:40:55;0.80;;;0.80;;
74465;SDS011;62916;50.044;15.938;2022-08-21T08:46:04;1.20;;;0.90;;
74465;SDS011;62916;50.044;15.938;2022-08-21T08:48:43;0.90;;;0.90;;
74465;SDS011;62916;50.044;15.938;2022-08-21T08:51:21;1.00;;;0.90;;
74465;SDS011;62916;50.044;15.938;2022-08-21T08:53:59;1.60;;;0.90;;
74465;SDS011;62916;50.044;15.938;2022-08-21T08:56:33;1.20;;;1.00;;
74465;SDS011;62916;50.044;15.938;2022-08-21T08:59:05;1.00;;;0.90;;
74465;SDS011;62916;50.044;15.938;2022-08-21T09:01:42;1.30;;;0.90;;
74465;SDS011;62916;50.044;15.938;2022-08-21T09:04:13;1.10;;;0.90;;
74465;SDS011;62916;50.044;15.938;2022-08-21T09:06:53;2.30;;;1.00;;
74465;SDS011;62916;50.044;15.938;2022-08-21T09:09:34;1.40;;;0.90;;
74465;SDS011;62916;50.044;15.938;2022-08-21T09:12:17;2.70;;;0.90;;
74465;SDS011;62916;50.044;15.938;2022-08-21T09:15:01;2.00;;;0.80;;
74465;SDS011;62916;50.044;15.938;2022-08-21T09:17:40;0.90;;;0.80;;
74465;SDS011;62916;50.044;15.938;2022-08-21T09:20:32;1.80;;;1.00;;
74465;SDS011;62916;50.044;15.938;2022-08-21T09:23:13;1.10;;;0.70;;
74465;SDS011;62916;50.044;15.938;2022-08-21T09:25:59;2.10;;;0.90;;
74465;SDS011;62916;50.044;15.938;2022-08-21T09:28:36;1.20;;;1.20;;
74465;SDS011;62916;50.044;15.938;2022-08-21T09:31:16;1.00;;;1.00;;
74465;SDS011;62916;50.044;15.938;2022-08-21T09:33:58;1.00;;;1.00;;
74465;SDS011;62916;50.044;15.938;2022-08-21T09:36:33;1.20;;;1.10;;
74465;SDS011;62916;50.044;15.938;2022-08-21T09:39:08;1.60;;;1.10;;
74465;SDS011;62916;50.044;15.938;2022-08-21T09:41:41;1.70;;;1.00;;
74465;SDS011;62916;50.044;15.938;2022-08-21T09:44:13;1.30;;;1.10;;
74465;SDS011;62916;50.044;15.938;2022-08-21T09:46:53;1.30;;;1.20;;
74465;SDS011;62916;50.044;15.938;2022-08-21T09:49:28;1.00;;;1.00;;
74465;SDS011;62916;50.044;15.938;2022-08-21T09:52:02;0.90;;;0.90;;
74465;SDS011;62916;50.044;15.938;2022-08-21T09:54:51;0.90;;;0.90;;
74465;SDS011;62916;50.044;15.938;2022-08-21T09:57:24;1.30;;;1.20;;
74465;SDS011;62916;50.044;15.938;2022-08-21T10:00:19;1.50;;;1.20;;
74465;SDS011;62916;50.044;15.938;2022-08-21T10:02:54;1.50;;;1.40;;
74465;SDS011;62916;50.044;15.938;2022-08-21T10:05:36;2.10;;;1.60;;
74465;SDS011;62916;50.044;15.938;2022-08-21T10:08:17;1.50;;;1.40;;
74465;SDS011;62916;50.044;15.938;2022-08-21T10:10:51;3.00;;;1.50;;
74465;SDS011;62916;50.044;15.938;2022-08-21T10:13:28;2.40;;;1.20;;
74465;SDS011;62916;50.044;15.938;2022-08-21T10:16:22;1.60;;;1.20;;
74465;SDS011;62916;50.044;15.938;2022-08-21T10:19:07;1.70;;;1.30;;
74465;SDS011;62916;50.044;15.938;2022-08-21T10:21:53;2.90;;;1.30;;
74465;SDS011;62916;50.044;15.938;2022-08-21T10:24:33;2.60;;;1.70;;
74465;SDS011;62916;50.044;15.938;2022-08-21T10:27:14;2.00;;;1.50;;
74465;SDS011;62916;50.044;15.938;2022-08-21T10:29:53;2.00;;;1.30;;
74465;SDS011;62916;50.044;15.938;2022-08-21T10:32:36;2.00;;;1.30;;
74465;SDS011;62916;50.044;15.938;2022-08-21T10:35:25;1.40;;;1.30;;
74465;SDS011;62916;50.044;15.938;2022-08-21T10:38:06;1.50;;;1.20;;
74465;SDS011;62916;50.044;15.938;2022-08-21T10:43:52;1.80;;;1.50;;
74465;SDS011;62916;50.044;15.938;2022-08-21T10:46:40;2.40;;;2.20;;
74465;SDS011;62916;50.044;15.938;2022-08-21T10:49:20;2.10;;;1.90;;
74465;SDS011;62916;50.044;15.938;2022-08-21T10:52:05;2.80;;;2.10;;
74465;SDS011;62916;50.044;15.938;2022-08-21T10:54:52;3.10;;;2.00;;
74465;SDS011;62916;50.044;15.938;2022-08-21T10:57:27;3.30;;;2.60;;
74465;SDS011;62916;50.044;15.938;2022-08-21T11:00:06;4.00;;;2.60;;
74465;SDS011;62916;50.044;15.938;2022-08-21T11:02:42;2.90;;;2.10;;
74465;SDS011;62916;50.044;15.938;2022-08-21T11:05:18;2.30;;;2.10;;
74465;SDS011;62916;50.044;15.938;2022-08-21T11:07:55;2.90;;;2.20;;
74465;SDS011;62916;50.044;15.938;2022-08-21T11:10:32;3.10;;;2.30;;
74465;SDS011;62916;50.044;15.938;2022-08-21T11:13:26;2.40;;;1.80;;
74465;SDS011;62916;50.044;15.938;2022-08-21T11:16:03;2.40;;;2.10;;
74465;SDS011;62916;50.044;15.938;2022-08-21T11:18:40;2.50;;;2.00;;
74465;SDS011;62916;50.044;15.938;2022-08-21T11:21:19;2.80;;;2.40;;
74465;SDS011;62916;50.044;15.938;2022-08-21T11:23:59;2.60;;;1.50;;
74465;SDS011;62916;50.044;15.938;2022-08-21T11:26:43;1.70;;;1.40;;
74465;SDS011;62916;50.044;15.938;2022-08-21T11:29:19;1.40;;;1.30;;
74465;SDS011;62916;50.044;15.938;2022-08-21T11:31:56;2.20;;;1.40;;
74465;SDS011;62916;50.044;15.938;2022-08-21T11:34:38;1.20;;;1.10;;
74465;SDS011;62916;50.044;15.938;2022-08-21T11:37:17;1.60;;;1.00;;
74465;SDS011;62916;50.044;15.938;2022-08-21T11:39:55;1.30;;;1.00;;
74465;SDS011;62916;50.044;15.938;2022-08-21T11:42:33;1.20;;;1.10;;
74465;SDS011;62916;50.044;15.938;2022-08-21T11:45:17;1.10;;;0.90;;
74465;SDS011;62916;50.044;15.938;2022-08-21T11:47:58;1.30;;;1.10;;
74465;SDS011;62916;50.044;15.938;2022-08-21T11:50:39;1.10;;;0.90;;
74465;SDS011;62916;50.044;15.938;2022-08-21T11:55:44;0.90;;;0.90;;
74465;SDS011;62916;50.044;15.938;2022-08-21T11:58:20;0.80;;;0.70;;
74465;SDS011;62916;50.044;15.938;2022-08-21T12:00:55;1.00;;;0.80;;
74465;SDS011;62916;50.044;15.938;2022-08-21T12:03:31;1.10;;;0.80;;
74465;SDS011;62916;50.044;15.938;2022-08-21T12:06:08;0.80;;;0.60;;
74465;SDS011;62916;50.044;15.938;2022-08-21T12:08:57;1.50;;;0.80;;
74465;SDS011;62916;50.044;15.938;2022-08-21T12:11:30;0.90;;;0.80;;
74465;SDS011;62916;50.044;15.938;2022-08-21T12:16:42;0.90;;;0.90;;
74465;SDS011;62916;50.044;15.938;2022-08-21T12:19:30;1.20;;;1.10;;
74465;SDS011;62916;50.044;15.938;2022-08-21T12:22:08;1.70;;;1.10;;
74465;SDS011;62916;50.044;15.938;2022-08-21T12:24:42;0.80;;;0.80;;
74465;SDS011;62916;50.044;15.938;2022-08-21T12:27:21;1.20;;;1.00;;
74465;SDS011;62916;50.044;15.938;2022-08-21T12:29:58;1.20;;;1.10;;
74465;SDS011;62916;50.044;15.938;2022-08-21T12:32:42;1.50;;;0.90;;
74465;SDS011;62916;50.044;15.938;2022-08-21T12:35:17;2.10;;;1.20;;
74465;SDS011;62916;50.044;15.938;2022-08-21T12:37:58;1.10;;;1.00;;
74465;SDS011;62916;50.044;15.938;2022-08-21T12:40:39;1.00;;;0.90;;
74465;SDS011;62916;50.044;15.938;2022-08-21T12:43:13;0.90;;;0.80;;
74465;SDS011;62916;50.044;15.938;2022-08-21T12:45:48;1.30;;;1.20;;
74465;SDS011;62916;50.044;15.938;2022-08-21T12:48:21;0.70;;;0.70;;
74465;SDS011;62916;50.044;15.938;2022-08-21T12:50:57;1.60;;;1.20;;
74465;SDS011;62916;50.044;15.938;2022-08-21T12:53:38;1.00;;;0.70;;
74465;SDS011;62916;50.044;15.938;2022-08-21T12:56:14;1.30;;;1.10;;
74465;SDS011;62916;50.044;15.938;2022-08-21T12:58:49;1.10;;;0.80;;
74465;SDS011;62916;50.044;15.938;2022-08-21T13:01:24;1.60;;;1.10;;
74465;SDS011;62916;50.044;15.938;2022-08-21T13:04:08;1.40;;;1.10;;
74465;SDS011;62916;50.044;15.938;2022-08-21T13:06:43;0.80;;;0.80;;
74465;SDS011;62916;50.044;15.938;2022-08-21T13:09:16;0.90;;;0.80;;
74465;SDS011;62916;50.044;15.938;2022-08-21T13:11:52;1.60;;;0.90;;
74465;SDS011;62916;50.044;15.938;2022-08-21T13:14:25;1.70;;;1.10;;
74465;SDS011;62916;50.044;15.938;2022-08-21T13:17:00;1.00;;;0.80;;
74465;SDS011;62916;50.044;15.938;2022-08-21T13:19:35;1.20;;;0.90;;
74465;SDS011;62916;50.044;15.938;2022-08-21T13:22:10;1.10;;;1.00;;
74465;SDS011;62916;50.044;15.938;2022-08-21T13:25:01;1.10;;;1.00;;
74465;SDS011;62916;50.044;15.938;2022-08-21T13:27:38;3.80;;;1.30;;
74465;SDS011;62916;50.044;15.938;2022-08-21T13:30:12;2.00;;;1.10;;
74465;SDS011;62916;50.044;15.938;2022-08-21T13:32:48;3.70;;;1.10;;
74465;SDS011;62916;50.044;15.938;2022-08-21T13:35:26;1.30;;;1.00;;
74465;SDS011;62916;50.044;15.938;2022-08-21T13:37:59;1.30;;;1.00;;
74465;SDS011;62916;50.044;15.938;2022-08-21T13:40:32;1.40;;;1.20;;
74465;SDS011;62916;50.044;15.938;2022-08-21T13:43:17;1.70;;;1.20;;
74465;SDS011;62916;50.044;15.938;2022-08-21T13:45:51;2.20;;;1.10;;
74465;SDS011;62916;50.044;15.938;2022-08-21T13:48:24;2.00;;;1.00;;
74465;SDS011;62916;50.044;15.938;2022-08-21T13:50:58;1.80;;;1.10;;
74465;SDS011;62916;50.044;15.938;2022-08-21T13:53:31;1.30;;;1.20;;
74465;SDS011;62916;50.044;15.938;2022-08-21T13:56:04;2.80;;;1.00;;
74465;SDS011;62916;50.044;15.938;2022-08-21T13:58:42;1.70;;;1.00;;
74465;SDS011;62916;50.044;15.938;2022-08-21T14:01:19;1.30;;;1.00;;
74465;SDS011;62916;50.044;15.938;2022-08-21T14:03:55;1.90;;;0.90;;
74465;SDS011;62916;50.044;15.938;2022-08-21T14:06:32;1.70;;;1.40;;
74465;SDS011;62916;50.044;15.938;2022-08-21T14:09:10;2.10;;;1.60;;
74465;SDS011;62916;50.044;15.938;2022-08-21T14:11:45;2.00;;;1.10;;
74465;SDS011;62916;50.044;15.938;2022-08-21T14:14:19;1.30;;;1.00;;
74465;SDS011;62916;50.044;15.938;2022-08-21T14:16:56;2.00;;;1.20;;
74465;SDS011;62916;50.044;15.938;2022-08-21T14:19:49;1.90;;;1.20;;
74465;SDS011;62916;50.044;15.938;2022-08-21T14:22:23;1.80;;;1.00;;
74465;SDS011;62916;50.044;15.938;2022-08-21T14:25:01;1.80;;;1.10;;
74465;SDS011;62916;50.044;15.938;2022-08-21T14:27:42;1.20;;;1.10;;
74465;SDS011;62916;50.044;15.938;2022-08-21T14:30:20;1.70;;;1.20;;
74465;SDS011;62916;50.044;15.938;2022-08-21T14:32:59;1.50;;;1.30;;
74465;SDS011;62916;50.044;15.938;2022-08-21T14:35:31;1.30;;;1.10;;
74465;SDS011;62916;50.044;15.938;2022-08-21T14:38:02;1.30;;;1.20;;
74465;SDS011;62916;50.044;15.938;2022-08-21T14:40:42;1.80;;;1.50;;
74465;SDS011;62916;50.044;15.938;2022-08-21T14:43:15;1.20;;;1.00;;
74465;SDS011;62916;50.044;15.938;2022-08-21T14:45:48;3.80;;;1.40;;
74465;SDS011;62916;50.044;15.938;2022-08-21T14:48:19;1.20;;;1.10;;
74465;SDS011;62916;50.044;15.938;2022-08-21T14:50:50;1.40;;;1.30;;
74465;SDS011;62916;50.044;15.938;2022-08-21T14:53:27;1.20;;;1.00;;
74465;SDS011;62916;50.044;15.938;2022-08-21T14:55:58;1.70;;;1.20;;
74465;SDS011;62916;50.044;15.938;2022-08-21T14:58:36;1.40;;;1.20;;
74465;SDS011;62916;50.044;15.938;2022-08-21T15:01:09;1.00;;;0.90;;
74465;SDS011;62916;50.044;15.938;2022-08-21T15:06:11;1.70;;;1.00;;
74465;SDS011;62916;50.044;15.938;2022-08-21T15:08:48;1.50;;;1.10;;
74465;SDS011;62916;50.044;15.938;2022-08-21T15:11:20;1.50;;;1.00;;
74465;SDS011;62916;50.044;15.938;2022-08-21T15:14:10;1.60;;;1.10;;
74465;SDS011;62916;50.044;15.938;2022-08-21T15:16:56;2.00;;;1.10;;
74465;SDS011;62916;50.044;15.938;2022-08-21T15:19:27;3.00;;;1.50;;
74465;SDS011;62916;50.044;15.938;2022-08-21T15:21:58;6.00;;;1.30;;
74465;SDS011;62916;50.044;15.938;2022-08-21T15:24:29;1.60;;;1.20;;
74465;SDS011;62916;50.044;15.938;2022-08-21T15:27:01;1.50;;;1.40;;
74465;SDS011;62916;50.044;15.938;2022-08-21T15:29:35;1.60;;;1.50;;